Terminal Aerodrome Forecast
Issued by NWS Grand Forks, ND

Home | Current Version | Previous Version | Text Only | Print | Product List | Glossary Off
Versions: 1 2 3 4 5 6 7 8 9 10 11 12 13 14 15 16 17 18 19 20 21

282
FTUS43 KFGF 270520
TAFGFK
TAF
KGFK 270520Z 2706/2806 36013KT P6SM -SN OVC025
      TEMPO 2706/2709 1SM -SN BR OVC011
     FM270900 01010KT P6SM BKN015
      TEMPO 2709/2710 3/4SM -SN OVC010
     FM271000 36010KT P6SM BKN012
     FM271600 34015G20KT P6SM BKN015
     FM280100 35012KT P6SM BKN035=

USA.gov is the U.S. government's official web portal to all federal, state and local government web resources and services.